createdAt,value
2018-12-10T00:00:29.289Z,0
2018-12-10T00:03:57.142Z,0
2018-12-10T00:07:25.013Z,0
2018-12-10T00:10:52.893Z,0
2018-12-10T00:14:20.860Z,0
2018-12-10T00:17:48.715Z,0
2018-12-10T00:21:16.589Z,0
2018-12-10T00:24:44.458Z,0
2018-12-10T00:28:13.310Z,0
2018-12-10T00:31:41.188Z,0
2018-12-10T00:35:09.062Z,0
2018-12-10T00:38:37.907Z,0
2018-12-10T00:42:06.766Z,0
2018-12-10T00:45:34.613Z,0
2018-12-10T00:49:02.474Z,0
2018-12-10T00:52:30.302Z,0
2018-12-10T00:55:58.153Z,0
2018-12-10T00:59:26.004Z,0
2018-12-10T01:02:53.844Z,0
2018-12-10T01:06:21.691Z,0
2018-12-10T01:09:49.540Z,0
2018-12-10T01:13:17.372Z,0
2018-12-10T01:16:45.223Z,0
2018-12-10T01:20:13.076Z,0
2018-12-10T01:23:40.923Z,0
2018-12-10T01:27:08.759Z,0
2018-12-10T01:30:36.609Z,0
2018-12-10T01:34:04.459Z,0
2018-12-10T01:37:32.294Z,0
2018-12-10T01:41:00.141Z,0
2018-12-10T01:44:28.556Z,0
2018-12-10T01:47:56.400Z,0
2018-12-10T01:51:24.246Z,0
2018-12-10T01:54:52.089Z,0
2018-12-10T01:58:19.953Z,0
2018-12-10T02:01:47.783Z,0
2018-12-10T02:05:15.630Z,0
2018-12-10T02:08:43.460Z,0
2018-12-10T02:12:12.313Z,0
2018-12-10T02:15:40.172Z,0
2018-12-10T02:19:08.015Z,0
2018-12-10T02:22:35.865Z,0
2018-12-10T02:26:04.635Z,0
2018-12-10T02:29:32.473Z,0
2018-12-10T02:33:00.327Z,0
2018-12-10T02:36:29.170Z,0
2018-12-10T02:39:57.022Z,0
2018-12-10T02:43:24.862Z,0
2018-12-10T02:46:52.711Z,0
2018-12-10T02:50:20.563Z,0
2018-12-10T02:53:48.393Z,0
2018-12-10T02:57:16.243Z,0
2018-12-10T03:00:45.084Z,0
2018-12-10T03:04:12.919Z,0
2018-12-10T03:07:40.766Z,0
2018-12-10T03:11:08.616Z,0
2018-12-10T03:14:36.464Z,0
2018-12-10T03:18:04.296Z,0
2018-12-10T03:21:32.140Z,0
2018-12-10T03:24:59.988Z,0
2018-12-10T03:28:27.822Z,0
2018-12-10T03:31:56.668Z,0
2018-12-10T03:35:24.513Z,0
2018-12-10T03:38:52.351Z,0
2018-12-10T03:42:20.288Z,0
2018-12-10T03:45:49.132Z,0
2018-12-10T03:49:17.964Z,0
2018-12-10T03:52:45.816Z,0
2018-12-10T03:56:13.666Z,0
2018-12-10T03:59:41.505Z,0
2018-12-10T04:03:09.361Z,0
2018-12-10T04:06:37.216Z,0
2018-12-10T04:10:05.069Z,0
2018-12-10T04:13:32.906Z,0
2018-12-10T04:17:00.759Z,0
2018-12-10T04:20:28.606Z,0
2018-12-10T04:23:56.443Z,0
2018-12-10T04:27:24.299Z,0
2018-12-10T04:30:52.147Z,0
2018-12-10T04:34:19.975Z,0
2018-12-10T04:37:47.824Z,0
2018-12-10T04:41:15.685Z,0
2018-12-10T04:44:43.519Z,0
2018-12-10T04:48:11.437Z,0
2018-12-10T04:51:39.291Z,0
2018-12-10T04:55:07.255Z,0
2018-12-10T04:58:35.085Z,0
2018-12-10T05:02:03.031Z,0
2018-12-10T05:05:31.015Z,0
2018-12-10T05:08:58.868Z,0
2018-12-10T05:12:27.697Z,0
2018-12-10T05:15:55.548Z,0
2018-12-10T05:19:23.381Z,0
2018-12-10T05:22:51.239Z,0
2018-12-10T05:26:19.089Z,0
2018-12-10T05:29:46.997Z,0
2018-12-10T05:33:14.848Z,0
2018-12-10T05:36:42.695Z,0
2018-12-10T05:40:10.657Z,0
2018-12-10T05:43:39.498Z,0
2018-12-10T05:47:07.347Z,0
2018-12-10T05:50:35.201Z,0
2018-12-10T05:54:03.034Z,0
2018-12-10T05:57:31.871Z,0
2018-12-10T06:00:59.727Z,0
2018-12-10T06:04:27.557Z,0
2018-12-10T06:07:55.405Z,0
2018-12-10T06:11:23.258Z,0
2018-12-10T06:14:51.091Z,0
2018-12-10T06:18:18.940Z,0
2018-12-10T06:21:46.798Z,0
2018-12-10T06:25:14.638Z,0
2018-12-10T06:28:43.730Z,0
2018-12-10T06:32:12.323Z,0
2018-12-10T06:35:40.172Z,0
2018-12-10T06:39:08.010Z,0
2018-12-10T06:42:35.862Z,0
2018-12-10T06:46:03.708Z,0
2018-12-10T06:49:31.665Z,0
2018-12-10T06:52:59.501Z,0
2018-12-10T06:56:27.349Z,0
2018-12-10T06:59:55.201Z,0
2018-12-10T07:03:23.032Z,0
2018-12-10T07:06:50.888Z,0
2018-12-10T07:10:18.737Z,0
2018-12-10T07:13:46.570Z,0
2018-12-10T07:17:14.425Z,0
2018-12-10T07:20:42.275Z,0
2018-12-10T07:24:10.101Z,0
2018-12-10T07:27:38.945Z,0
2018-12-10T07:31:06.791Z,5.625
2018-12-10T07:34:34.649Z,5.625
2018-12-10T07:38:03.695Z,5.625
2018-12-10T07:41:31.547Z,5.625
2018-12-10T07:44:59.395Z,5.625
2018-12-10T07:48:27.230Z,5.625
2018-12-10T07:51:55.809Z,11.25
2018-12-10T07:55:23.666Z,11.25
2018-12-10T07:58:51.501Z,11.25
2018-12-10T08:02:19.358Z,16.875
2018-12-10T08:05:48.196Z,16.875
2018-12-10T08:09:16.050Z,16.875
2018-12-10T08:12:43.883Z,16.875
2018-12-10T08:16:11.737Z,22.5
2018-12-10T08:19:41.531Z,22.5
2018-12-10T08:23:08.415Z,22.5
2018-12-10T08:26:36.273Z,22.5
2018-12-10T08:30:04.125Z,33.75
2018-12-10T08:33:31.968Z,33.75
2018-12-10T08:36:59.951Z,39.375
2018-12-10T08:40:27.808Z,39.375
2018-12-10T08:43:56.632Z,39.375
2018-12-10T08:47:24.487Z,33.75
2018-12-10T08:50:52.340Z,50.625
2018-12-10T08:54:20.175Z,39.375
2018-12-10T08:57:48.031Z,50.625
2018-12-10T09:01:15.885Z,56.25
2018-12-10T09:04:43.723Z,56.25
2018-12-10T09:08:12.582Z,39.375
2018-12-10T09:11:40.433Z,67.5
2018-12-10T09:15:08.290Z,84.375
2018-12-10T09:18:37.122Z,50.625
2018-12-10T09:22:05.671Z,73.125
2018-12-10T09:25:33.527Z,56.25
2018-12-10T09:29:01.361Z,78.75
2018-12-10T09:32:29.241Z,56.25
2018-12-10T09:35:57.071Z,95.625
2018-12-10T09:39:24.908Z,95.625
2018-12-10T09:42:52.754Z,78.75
2018-12-10T09:46:27.419Z,73.125
2018-12-10T09:49:52.406Z,67.5
2018-12-10T09:53:20.269Z,78.75
2018-12-10T09:56:48.131Z,90
2018-12-10T10:00:16.775Z,67.5
2018-12-10T10:03:44.613Z,67.5
2018-12-10T10:07:13.172Z,101.25
2018-12-10T10:10:41.019Z,118.125
2018-12-10T10:14:08.859Z,106.875
2018-12-10T10:17:36.713Z,140.625
2018-12-10T10:21:04.567Z,123.75
2018-12-10T10:24:34.398Z,135
2018-12-10T10:28:02.254Z,123.75
2018-12-10T10:31:31.523Z,129.375
2018-12-10T10:34:58.951Z,106.875
2018-12-10T10:38:26.795Z,95.625
2018-12-10T10:41:57.325Z,112.5
2018-12-10T10:45:34.439Z,225
2018-12-10T10:48:57.092Z,163.125
2018-12-10T10:52:25.017Z,135
2018-12-10T10:55:54.782Z,112.5
2018-12-10T10:59:23.613Z,101.25
2018-12-10T11:02:51.466Z,90
2018-12-10T11:06:19.318Z,95.625
2018-12-10T11:09:47.158Z,84.375
2018-12-10T11:13:15.005Z,90
2018-12-10T11:16:42.860Z,73.125
2018-12-10T11:20:10.697Z,101.25
2018-12-10T11:23:38.542Z,90
2018-12-10T11:27:06.391Z,73.125
2018-12-10T11:30:34.237Z,78.75
2018-12-10T11:34:02.072Z,61.875
2018-12-10T11:37:29.934Z,67.5
2018-12-10T11:40:58.774Z,61.875
2018-12-10T11:44:26.623Z,78.75
2018-12-10T11:47:54.478Z,50.625
2018-12-10T11:51:23.189Z,39.375
2018-12-10T11:54:51.027Z,33.75
2018-12-10T11:58:18.891Z,61.875
2018-12-10T12:01:46.726Z,45
2018-12-10T12:05:14.567Z,39.375
2018-12-10T12:08:43.089Z,33.75
2018-12-10T12:12:10.940Z,50.625
2018-12-10T12:15:39.772Z,50.625
2018-12-10T12:19:11.834Z,39.375
2018-12-10T12:22:39.442Z,61.875
2018-12-10T12:26:07.297Z,67.5
2018-12-10T12:29:36.128Z,45
2018-12-10T12:33:05.085Z,50.625
2018-12-10T12:36:33.923Z,56.25
2018-12-10T12:40:01.757Z,50.625
2018-12-10T12:43:29.615Z,61.875
2018-12-10T12:46:57.474Z,39.375
2018-12-10T12:50:25.310Z,45
2018-12-10T12:53:53.795Z,56.25
2018-12-10T12:57:21.746Z,50.625
2018-12-10T13:00:50.336Z,50.625
2018-12-10T13:04:20.126Z,56.25
2018-12-10T13:07:48.000Z,56.25
2018-12-10T13:11:15.878Z,78.75
2018-12-10T13:14:43.729Z,50.625
2018-12-10T13:18:11.579Z,50.625
2018-12-10T13:21:39.435Z,39.375
2018-12-10T13:25:07.264Z,22.5
2018-12-10T13:28:35.122Z,45
2018-12-10T13:32:03.967Z,39.375
2018-12-10T13:39:00.641Z,39.375
2018-12-10T13:42:28.502Z,28.125
2018-12-10T13:45:57.456Z,28.125
2018-12-10T13:49:25.175Z,22.5
2018-12-10T13:52:54.029Z,22.5
2018-12-10T13:56:24.412Z,28.125
2018-12-10T13:59:52.221Z,28.125
2018-12-10T14:03:20.940Z,22.5
2018-12-10T14:06:49.923Z,28.125
2018-12-10T14:10:17.838Z,22.5
2018-12-10T14:13:47.453Z,16.875
2018-12-10T14:17:17.528Z,11.25
2018-12-10T14:20:46.504Z,11.25
2018-12-10T14:24:15.354Z,11.25
2018-12-10T14:27:43.841Z,28.125
2018-12-10T14:31:14.315Z,28.125
2018-12-10T14:34:44.324Z,16.875
2018-12-10T14:38:12.227Z,5.625
2018-12-10T14:41:40.079Z,5.625
2018-12-10T14:45:07.950Z,5.625
2018-12-10T14:48:36.813Z,5.625
2018-12-10T14:52:04.659Z,5.625
2018-12-10T14:55:32.529Z,0
2018-12-10T14:59:00.389Z,0
2018-12-10T15:02:28.261Z,0
2018-12-10T15:05:56.123Z,0
2018-12-10T15:09:23.984Z,0
2018-12-10T15:12:51.963Z,0
2018-12-10T15:16:19.723Z,0
2018-12-10T15:19:47.564Z,0
2018-12-10T15:23:15.422Z,0
2018-12-10T15:26:43.300Z,0
2018-12-10T15:30:11.165Z,0
2018-12-10T15:33:39.017Z,0
2018-12-10T15:37:06.918Z,0
2018-12-10T15:40:34.757Z,0
2018-12-10T15:44:02.635Z,0
2018-12-10T15:47:30.490Z,0
2018-12-10T15:50:58.327Z,0
2018-12-10T15:54:27.186Z,0
2018-12-10T15:57:55.169Z,0
2018-12-10T16:01:23.099Z,0
2018-12-10T16:04:50.955Z,0
2018-12-10T16:08:18.830Z,0
2018-12-10T16:11:46.726Z,0
2018-12-10T16:15:14.566Z,0
2018-12-10T16:18:42.419Z,0
2018-12-10T16:22:10.289Z,0
2018-12-10T16:25:38.132Z,0
2018-12-10T16:29:06.989Z,0
2018-12-10T16:32:34.866Z,0
2018-12-10T16:36:02.708Z,0
2018-12-10T16:39:30.603Z,0
2018-12-10T16:42:58.435Z,0
2018-12-10T16:46:29.612Z,0
2018-12-10T16:49:59.289Z,0
2018-12-10T16:53:27.196Z,0
2018-12-10T16:56:56.044Z,0
2018-12-10T17:00:24.667Z,0
2018-12-10T17:03:52.515Z,0
2018-12-10T17:07:20.397Z,0
2018-12-10T17:10:48.252Z,0
2018-12-10T17:14:16.096Z,0
2018-12-10T17:17:44.059Z,0
2018-12-10T17:21:11.899Z,0
2018-12-10T17:24:40.465Z,0
2018-12-10T17:28:09.330Z,0
2018-12-10T17:31:37.639Z,0
2018-12-10T17:35:05.532Z,0
2018-12-10T17:38:33.510Z,0
2018-12-10T17:42:01.368Z,0
2018-12-10T17:45:29.264Z,0
2018-12-10T17:48:57.134Z,0
2018-12-10T17:52:25.033Z,0
2018-12-10T17:55:52.879Z,0
2018-12-10T17:59:20.764Z,0
2018-12-10T18:02:49.637Z,0
2018-12-10T18:06:17.627Z,0
2018-12-10T18:09:45.477Z,0
2018-12-10T18:13:13.379Z,0
2018-12-10T18:16:41.236Z,0
2018-12-10T18:20:09.381Z,0
2018-12-10T18:23:37.285Z,0
2018-12-10T18:27:05.138Z,0
2018-12-10T18:30:33.018Z,0
2018-12-10T18:34:01.231Z,0
2018-12-10T18:37:28.752Z,0
2018-12-10T18:40:56.621Z,0
2018-12-10T18:44:24.489Z,0
2018-12-10T18:47:52.379Z,0
2018-12-10T18:51:20.272Z,0
2018-12-10T18:54:48.155Z,0
2018-12-10T18:58:16.086Z,0
2018-12-10T19:01:44.023Z,0
2018-12-10T19:05:14.656Z,0
2018-12-10T19:08:45.225Z,0
2018-12-10T19:12:14.099Z,0
2018-12-10T19:15:42.731Z,0
2018-12-10T19:19:10.620Z,0
2018-12-10T19:22:38.476Z,0
2018-12-10T19:26:07.145Z,0
2018-12-10T19:29:36.171Z,0
2018-12-10T19:33:04.033Z,0
2018-12-10T19:36:31.884Z,0
2018-12-10T19:39:59.741Z,0
2018-12-10T19:43:27.589Z,0
2018-12-10T19:46:55.426Z,0
2018-12-10T19:50:23.287Z,0
2018-12-10T19:53:51.233Z,0
2018-12-10T19:57:19.087Z,0
2018-12-10T20:00:46.930Z,0
2018-12-10T20:04:14.787Z,0
2018-12-10T20:07:42.656Z,0
2018-12-10T20:11:10.492Z,0
2018-12-10T20:14:38.347Z,0
2018-12-10T20:18:06.195Z,0
2018-12-10T20:21:35.026Z,0
2018-12-10T20:25:02.893Z,0
2018-12-10T20:28:30.820Z,0
2018-12-10T20:31:58.630Z,0
2018-12-10T20:35:27.224Z,0
2018-12-10T20:38:54.320Z,0
2018-12-10T20:42:22.158Z,0
2018-12-10T20:45:50.004Z,0
2018-12-10T20:49:17.852Z,0
2018-12-10T20:52:45.686Z,0
2018-12-10T20:56:13.540Z,0
2018-12-10T20:59:41.423Z,0
2018-12-10T21:03:09.275Z,0
2018-12-10T21:06:37.118Z,0
2018-12-10T21:10:04.971Z,0
2018-12-10T21:13:32.825Z,0
2018-12-10T21:17:00.670Z,0
2018-12-10T21:20:28.532Z,0
2018-12-10T21:23:56.383Z,0
2018-12-10T21:27:24.218Z,0
2018-12-10T21:30:52.076Z,0
2018-12-10T21:34:19.935Z,0
2018-12-10T21:37:47.921Z,0
2018-12-10T21:41:15.621Z,0
2018-12-10T21:44:44.469Z,0
2018-12-10T21:48:12.312Z,0
2018-12-10T21:51:40.144Z,0
2018-12-10T21:55:07.994Z,0
2018-12-10T21:58:35.842Z,0
2018-12-10T22:02:03.676Z,0
2018-12-10T22:05:31.519Z,0
2018-12-10T22:08:59.372Z,0
2018-12-10T22:12:28.205Z,0
2018-12-10T22:15:56.052Z,0
2018-12-10T22:19:23.908Z,0
2018-12-10T22:22:51.744Z,0
2018-12-10T22:26:20.586Z,0
2018-12-10T22:29:48.435Z,0
2018-12-10T22:33:16.543Z,0
2018-12-10T22:36:44.380Z,0
2018-12-10T22:40:12.233Z,0
2018-12-10T22:43:41.083Z,0
2018-12-10T22:47:08.916Z,0
2018-12-10T22:50:36.770Z,0
2018-12-10T22:54:04.627Z,0
2018-12-10T22:57:33.445Z,0
2018-12-10T23:01:01.287Z,0
2018-12-10T23:04:29.139Z,0
2018-12-10T23:07:56.976Z,0
2018-12-10T23:11:25.818Z,0
2018-12-10T23:14:53.671Z,0
2018-12-10T23:18:21.503Z,0
2018-12-10T23:21:49.350Z,0
2018-12-10T23:25:17.206Z,0
2018-12-10T23:28:46.056Z,0
2018-12-10T23:32:13.888Z,0
2018-12-10T23:35:41.735Z,0
2018-12-10T23:39:09.587Z,0
2018-12-10T23:42:37.421Z,0
2018-12-10T23:46:05.272Z,0
2018-12-10T23:49:33.131Z,0
2018-12-10T23:53:00.955Z,0
2018-12-10T23:56:28.806Z,0
2018-12-10T23:59:56.656Z,0
